createdAt,value
2017-11-30T03:02:45.187Z,99494
2017-11-30T03:05:15.278Z,99500
2017-11-30T03:07:45.279Z,99499
2017-11-30T03:10:15.704Z,99494
2017-11-30T03:12:45.673Z,99489
2017-11-30T03:15:15.673Z,99494
2017-11-30T03:17:45.778Z,99480
2017-11-30T03:20:15.787Z,99487
2017-11-30T03:44:22.959Z,99483
2017-11-30T03:46:52.904Z,99476
2017-11-30T03:49:22.870Z,99473
2017-11-30T03:51:52.871Z,99480
2017-11-30T03:54:24.011Z,99480
2017-11-30T04:42:46.341Z,99477
2017-11-30T04:45:16.304Z,99481
2017-11-30T04:47:46.551Z,99471
2017-11-30T04:50:16.521Z,99477
2017-11-30T05:04:58.353Z,99485
2017-11-30T05:07:28.337Z,99487
2017-11-30T05:09:58.329Z,99489
2017-11-30T05:12:28.322Z,99487
2017-11-30T05:14:58.304Z,99483
2017-11-30T05:17:28.302Z,99485
2017-11-30T05:19:58.399Z,99483
2017-11-30T05:22:29.043Z,99477
2017-11-30T05:24:59.059Z,99482
2017-11-30T05:27:29.058Z,99484
2017-11-30T05:29:59.064Z,99476
2017-11-30T05:32:29.026Z,99477
2017-11-30T05:34:59.012Z,99475
2017-11-30T05:37:29.024Z,99476
2017-11-30T05:39:59.056Z,99479
2017-11-30T05:48:39.851Z,99473
2017-11-30T05:51:09.838Z,99470
2017-11-30T05:53:39.967Z,99464
2017-11-30T05:56:10.019Z,99472
2017-11-30T05:58:40.044Z,99469
2017-11-30T06:01:10.051Z,99468
2017-11-30T06:03:40.135Z,99468
2017-11-30T06:06:10.196Z,99472
2017-11-30T06:08:40.204Z,99468
2017-11-30T06:11:10.251Z,99468
2017-11-30T06:13:40.271Z,99468
2017-11-30T06:18:46.499Z,99457
2017-11-30T06:21:16.536Z,99460
2017-11-30T06:23:46.495Z,99468
2017-11-30T06:26:16.527Z,99462
2017-11-30T06:28:47.295Z,99454
2017-11-30T06:31:17.360Z,99460
2017-11-30T06:33:47.342Z,99457
2017-11-30T06:36:17.443Z,99454
2017-11-30T06:38:47.413Z,99455
2017-11-30T06:41:17.393Z,99456
2017-11-30T06:43:47.420Z,99457
2017-11-30T06:46:17.501Z,99452
2017-11-30T06:48:47.483Z,99460
2017-11-30T06:54:24.455Z,99462
2017-11-30T07:40:26.657Z,99468
2017-11-30T07:42:56.642Z,99472
2017-11-30T07:45:26.774Z,99475
2017-11-30T07:47:56.775Z,99474
2017-11-30T07:53:33.231Z,99472
2017-11-30T07:56:03.355Z,99480
2017-11-30T07:58:33.327Z,99477
2017-11-30T08:04:09.971Z,99477
2017-11-30T08:06:40.088Z,99475
2017-11-30T08:09:10.140Z,99483
2017-11-30T08:11:40.147Z,99479
2017-11-30T08:14:10.126Z,99478
2017-11-30T08:16:40.048Z,99488
2017-11-30T08:19:09.994Z,99484
2017-11-30T08:21:39.941Z,99491
2017-11-30T08:24:09.867Z,99487
2017-11-30T08:26:39.772Z,99477
2017-11-30T08:29:09.688Z,99486
2017-11-30T08:31:39.585Z,99484
2017-11-30T08:34:09.498Z,99486
2017-11-30T08:36:39.441Z,99485
2017-11-30T08:39:09.351Z,99487
2017-11-30T08:41:39.287Z,99480
2017-11-30T08:44:09.188Z,99482
2017-11-30T08:46:39.181Z,99484
2017-11-30T08:49:09.075Z,99482
2017-11-30T09:07:04.819Z,99488
2017-11-30T09:09:34.869Z,99483
2017-11-30T09:12:04.866Z,99474
2017-11-30T09:56:59.629Z,99483
2017-11-30T09:59:29.788Z,99463
2017-11-30T10:01:59.729Z,99475
2017-11-30T10:04:29.875Z,99467
2017-11-30T10:06:59.891Z,99464
2017-11-30T10:09:29.954Z,99464
2017-11-30T10:12:00.523Z,99468
2017-11-30T10:14:30.918Z,99476
2017-11-30T10:17:01.210Z,99490
2017-11-30T10:19:31.333Z,99470
2017-11-30T10:22:01.628Z,99467
2017-11-30T10:24:31.721Z,99467
2017-11-30T10:27:01.731Z,99469
2017-11-30T10:29:32.687Z,99472
2017-11-30T10:45:04.217Z,99477
2017-11-30T10:47:34.750Z,99468
2017-11-30T10:50:04.696Z,99469
2017-11-30T10:52:34.816Z,99478
2017-11-30T10:55:04.732Z,99471
2017-11-30T10:57:34.929Z,99467
2017-11-30T11:00:08.998Z,99468
2017-11-30T11:12:23.996Z,99469
2017-11-30T11:14:53.951Z,99468
2017-11-30T11:17:23.999Z,99470
2017-11-30T11:19:53.948Z,99468
2017-11-30T11:22:23.913Z,99464
2017-11-30T11:24:53.853Z,99460
2017-11-30T11:27:23.783Z,99463
2017-11-30T11:29:53.757Z,99461
2017-11-30T11:32:23.676Z,99471
2017-11-30T11:34:53.598Z,99464
2017-11-30T11:37:23.541Z,99471
2017-11-30T11:39:53.464Z,99468
2017-11-30T11:42:23.369Z,99460
2017-11-30T11:44:53.414Z,99465
2017-11-30T11:47:23.317Z,99459
2017-11-30T11:49:53.446Z,99461
2017-11-30T11:52:23.159Z,99460
2017-11-30T11:54:53.128Z,99464
2017-11-30T11:57:23.044Z,99473
2017-11-30T11:59:53.008Z,99464
2017-11-30T12:02:22.990Z,99472
2017-11-30T12:04:52.958Z,99472
2017-11-30T12:07:22.870Z,99477
2017-11-30T12:09:53.402Z,99474
2017-11-30T12:12:23.314Z,99461
2017-11-30T12:14:53.230Z,99460
2017-11-30T12:17:23.173Z,99464
2017-11-30T12:19:53.248Z,99469
2017-11-30T12:22:23.219Z,99471
2017-11-30T12:24:53.176Z,99469
2017-11-30T12:27:23.077Z,99472
2017-11-30T12:29:53.006Z,99468
2017-11-30T12:32:23.682Z,99472
2017-11-30T12:34:53.638Z,99475
2017-11-30T12:37:23.615Z,99463
2017-11-30T12:39:53.545Z,99466
2017-11-30T12:42:23.494Z,99468
2017-11-30T12:44:53.447Z,99472
2017-11-30T12:47:23.538Z,99470
2017-11-30T12:49:53.453Z,99473
2017-11-30T12:52:23.419Z,99477
2017-11-30T12:54:53.345Z,99463
2017-11-30T12:57:23.238Z,99480
2017-11-30T12:59:53.212Z,99479
2017-11-30T13:02:23.130Z,99481
2017-11-30T13:04:53.076Z,99476
2017-11-30T13:07:23.046Z,99487
2017-11-30T13:09:52.997Z,99488
2017-11-30T13:12:22.937Z,99494
2017-11-30T13:14:52.877Z,99494
2017-11-30T13:17:22.957Z,99498
2017-11-30T13:19:52.917Z,99504
2017-11-30T13:22:22.825Z,99501
2017-11-30T13:24:52.828Z,99497
2017-11-30T13:27:22.799Z,99499
2017-11-30T13:29:52.789Z,99496
2017-11-30T13:32:22.716Z,99493
2017-11-30T13:34:52.646Z,99503
2017-11-30T13:37:22.537Z,99500
2017-11-30T13:39:52.631Z,99498
2017-11-30T13:42:22.550Z,99504
2017-11-30T13:44:52.446Z,99503
2017-11-30T13:47:22.437Z,99504
2017-11-30T13:49:52.387Z,99497
2017-11-30T13:52:22.305Z,99504
2017-11-30T13:54:52.186Z,99499
2017-11-30T13:57:22.171Z,99509
2017-11-30T13:59:52.118Z,99512
2017-11-30T14:02:22.123Z,99516
2017-11-30T14:04:52.055Z,99507
2017-11-30T14:07:22.091Z,99519
2017-11-30T14:09:52.401Z,99505
2017-11-30T14:12:22.370Z,99510
2017-11-30T14:14:52.276Z,99515
2017-11-30T14:17:22.261Z,99513
2017-11-30T14:19:52.209Z,99521
2017-11-30T14:22:22.165Z,99530
2017-11-30T14:24:52.082Z,99526
2017-11-30T14:27:22.052Z,99527
2017-11-30T14:29:51.945Z,99528
2017-11-30T14:32:21.967Z,99533
2017-11-30T14:34:51.858Z,99533
2017-11-30T14:37:21.852Z,99539
2017-11-30T14:39:51.819Z,99532
2017-11-30T14:42:21.858Z,99545
2017-11-30T14:44:51.796Z,99548
2017-11-30T14:47:21.711Z,99547
2017-11-30T14:49:51.629Z,99553
2017-11-30T14:52:21.543Z,99552
2017-11-30T14:54:51.477Z,99556
2017-11-30T14:57:21.382Z,99564
2017-11-30T14:59:51.301Z,99557
2017-11-30T15:02:21.282Z,99564
2017-11-30T15:04:51.199Z,99546
2017-11-30T15:07:21.120Z,99560
2017-11-30T15:09:51.056Z,99566
2017-11-30T15:12:21.006Z,99562
2017-11-30T15:14:51.006Z,99566
2017-11-30T15:17:20.930Z,99556
2017-11-30T15:19:50.880Z,99568
2017-11-30T15:22:20.776Z,99575
2017-11-30T15:24:50.707Z,99575
2017-11-30T15:27:20.645Z,99576
2017-11-30T15:29:50.625Z,99578
2017-11-30T15:32:20.532Z,99584
2017-11-30T15:34:50.453Z,99586
2017-11-30T15:37:20.406Z,99590
2017-11-30T15:39:50.646Z,99596
2017-11-30T15:42:20.601Z,99595
2017-11-30T15:44:50.558Z,99592
2017-11-30T15:47:20.510Z,99596
2017-11-30T15:49:50.451Z,99592
2017-11-30T15:52:20.436Z,99597
2017-11-30T15:54:50.344Z,99591
2017-11-30T15:57:20.417Z,99588
2017-11-30T15:59:50.349Z,99599
2017-11-30T16:02:20.298Z,99595
2017-11-30T16:04:50.860Z,99601
2017-11-30T16:07:20.843Z,99613
2017-11-30T16:09:50.798Z,99611
2017-11-30T16:12:20.768Z,99597
2017-11-30T16:14:50.664Z,99606
2017-11-30T16:17:20.572Z,99607
2017-11-30T16:19:50.627Z,99615
2017-11-30T16:22:20.563Z,99615
2017-11-30T16:24:50.541Z,99616
2017-11-30T16:27:20.451Z,99619
2017-11-30T16:29:50.394Z,99625
2017-11-30T16:32:20.343Z,99626
2017-11-30T16:34:50.271Z,99617
2017-11-30T16:37:20.232Z,99625
2017-11-30T16:39:50.364Z,99624
2017-11-30T16:42:20.277Z,99624
2017-11-30T16:44:50.236Z,99626
2017-11-30T16:47:20.201Z,99629
2017-11-30T16:49:50.207Z,99628
2017-11-30T16:52:20.141Z,99631
2017-11-30T16:54:50.066Z,99639
2017-11-30T16:57:19.968Z,99635
2017-11-30T16:59:49.883Z,99633
2017-11-30T17:02:19.787Z,99636
2017-11-30T17:04:49.714Z,99640
2017-11-30T17:07:19.897Z,99645
2017-11-30T17:09:49.803Z,99644
2017-11-30T17:12:19.763Z,99650
2017-11-30T17:14:49.694Z,99657
2017-11-30T17:17:19.592Z,99655
2017-11-30T17:19:49.520Z,99657
2017-11-30T17:22:19.401Z,99656
2017-11-30T17:24:49.382Z,99654
2017-11-30T17:27:19.319Z,99658
2017-11-30T17:29:49.258Z,99657
2017-11-30T17:32:19.150Z,99661
2017-11-30T17:34:49.059Z,99660
2017-11-30T17:37:18.952Z,99667
2017-11-30T17:39:49.045Z,99663
2017-11-30T17:42:19.012Z,99667
2017-11-30T17:44:48.941Z,99669
2017-11-30T17:47:18.938Z,99674
2017-11-30T17:49:48.979Z,99676
2017-11-30T17:52:18.886Z,99672
2017-11-30T17:54:48.926Z,99680
2017-11-30T17:57:21.455Z,99679
2017-11-30T17:59:51.525Z,99688
2017-11-30T18:02:21.433Z,99694
2017-11-30T18:04:51.363Z,99690
2017-11-30T18:07:21.261Z,99687
2017-11-30T18:09:51.516Z,99693
2017-11-30T18:12:21.510Z,99691
2017-11-30T18:14:51.436Z,99690
2017-11-30T18:17:21.335Z,99706
2017-11-30T18:19:51.319Z,99699
2017-11-30T18:22:21.238Z,99712
2017-11-30T18:24:51.185Z,99711
2017-11-30T18:27:21.171Z,99724
2017-11-30T18:29:51.247Z,99720
2017-11-30T18:32:21.217Z,99717
2017-11-30T18:34:51.175Z,99721
2017-11-30T18:37:21.179Z,99712
2017-11-30T18:39:51.166Z,99725
2017-11-30T18:42:21.230Z,99722
2017-11-30T18:44:51.242Z,99730
2017-11-30T18:47:21.225Z,99727
2017-11-30T18:49:51.158Z,99731
2017-11-30T18:52:21.067Z,99739
2017-11-30T18:54:51.031Z,99740
2017-11-30T18:57:21.091Z,99744
2017-11-30T18:59:51.108Z,99745
2017-11-30T19:02:21.059Z,99749
2017-11-30T19:04:51.052Z,99753
2017-11-30T19:07:20.989Z,99759
2017-11-30T19:09:50.918Z,99762
2017-11-30T19:12:20.850Z,99766
2017-11-30T19:14:50.927Z,99761
2017-11-30T19:17:20.855Z,99766
2017-11-30T19:19:50.837Z,99775
2017-11-30T19:22:20.830Z,99769
2017-11-30T19:24:50.794Z,99779
2017-11-30T19:27:20.761Z,99778
2017-11-30T19:29:50.758Z,99785
2017-11-30T19:32:20.728Z,99741
2017-11-30T19:34:50.696Z,99781
2017-11-30T19:37:20.610Z,99789
2017-11-30T19:39:50.561Z,99788
2017-11-30T19:42:20.521Z,99791
2017-11-30T19:44:50.550Z,99786
2017-11-30T19:47:20.480Z,99792
2017-11-30T19:49:50.507Z,99797
2017-11-30T19:52:20.436Z,99801
2017-11-30T19:54:50.352Z,99796
2017-11-30T19:57:20.340Z,99799
2017-11-30T19:59:50.325Z,99810
2017-11-30T20:02:20.276Z,99803
2017-11-30T20:04:50.230Z,99819
2017-11-30T20:07:20.178Z,99821
2017-11-30T20:09:50.088Z,99818
2017-11-30T20:12:20.073Z,99822
2017-11-30T20:14:50.042Z,99810
2017-11-30T20:17:20.000Z,99831
2017-11-30T20:19:49.923Z,99827
2017-11-30T20:22:19.846Z,99829
2017-11-30T20:24:49.770Z,99836
2017-11-30T20:27:19.788Z,99835
2017-11-30T20:29:49.736Z,99838
2017-11-30T20:32:19.689Z,99841
2017-11-30T20:34:49.602Z,99853
2017-11-30T20:37:19.587Z,99853
2017-11-30T20:39:49.523Z,99852
2017-11-30T20:42:19.470Z,99858
2017-11-30T20:44:49.395Z,99868
2017-11-30T20:47:19.476Z,99866
2017-11-30T20:49:49.473Z,99866
2017-11-30T20:52:19.522Z,99875
2017-11-30T20:54:49.454Z,99886
2017-11-30T20:57:19.388Z,99876
2017-11-30T20:59:50.260Z,99885
2017-11-30T21:02:20.181Z,99884
2017-11-30T21:04:50.151Z,99889
2017-11-30T21:07:20.103Z,99882
2017-11-30T21:09:50.170Z,99895
2017-11-30T21:12:20.150Z,99891
2017-11-30T21:14:50.172Z,99896
2017-11-30T21:17:20.137Z,99896
2017-11-30T21:19:50.131Z,99901
2017-11-30T21:22:20.083Z,99906
2017-11-30T21:24:51.349Z,99904
2017-11-30T21:27:21.304Z,99914
2017-11-30T21:29:51.450Z,99911
2017-11-30T21:32:21.467Z,99919
2017-11-30T21:34:51.531Z,99919
2017-11-30T21:37:22.883Z,99924
2017-11-30T21:39:53.024Z,99926
2017-11-30T21:42:22.984Z,99930
2017-11-30T21:44:52.967Z,99928
2017-11-30T21:47:22.998Z,99929
2017-11-30T21:49:53.014Z,99928
2017-11-30T21:52:22.967Z,99931
2017-11-30T21:54:53.034Z,99933
2017-11-30T21:57:22.998Z,99935
2017-11-30T21:59:53.755Z,99945
2017-11-30T22:02:24.577Z,99943
2017-11-30T22:04:54.553Z,99939
2017-11-30T22:07:25.451Z,99949
2017-11-30T22:09:55.404Z,99943
2017-11-30T22:12:25.336Z,99949
2017-11-30T22:14:55.310Z,99945
2017-11-30T22:17:25.792Z,99948
2017-11-30T22:19:55.794Z,99953
2017-11-30T22:22:26.889Z,99898
2017-11-30T22:24:57.284Z,99953
2017-11-30T22:27:27.476Z,99956
2017-11-30T22:29:57.450Z,99956
2017-11-30T22:32:27.516Z,99964
2017-11-30T22:34:57.437Z,99969
2017-11-30T22:37:27.397Z,99970
2017-11-30T22:39:58.711Z,99975
2017-11-30T22:42:30.076Z,99973
2017-11-30T22:45:00.890Z,99975
2017-11-30T22:47:31.162Z,99977
2017-11-30T22:50:02.256Z,99978
2017-11-30T22:52:32.247Z,99985
2017-11-30T22:55:02.951Z,99978
2017-11-30T22:57:32.890Z,99985
2017-11-30T23:00:03.342Z,99994
2017-11-30T23:02:33.279Z,99994
2017-11-30T23:05:04.218Z,100001
2017-11-30T23:07:34.290Z,100011
2017-11-30T23:10:04.305Z,100011
2017-11-30T23:12:34.328Z,100012
2017-11-30T23:15:04.418Z,100007
2017-11-30T23:17:34.479Z,100014
2017-11-30T23:20:05.446Z,100012
2017-11-30T23:22:35.402Z,100016
2017-11-30T23:25:05.349Z,100015
2017-11-30T23:27:36.603Z,100016
2017-11-30T23:30:06.706Z,100020
2017-11-30T23:32:36.697Z,100014
2017-11-30T23:35:06.641Z,100011
2017-11-30T23:37:37.142Z,100025
2017-11-30T23:40:07.082Z,100026
2017-11-30T23:42:39.534Z,100022
2017-11-30T23:45:10.159Z,100031
2017-11-30T23:47:40.102Z,100026
2017-11-30T23:50:10.046Z,100035
2017-11-30T23:52:39.990Z,100043
2017-11-30T23:55:10.960Z,100035
2017-11-30T23:57:40.968Z,100038
